Dolenn — FAA8887 — position and weather

sailwx.info

Track history (hours):
 
Tides and Currents Weather Stations Pressure Air Temp Water Temp Dewpoint Dewpoint Depression Visibility Wind Speed Wind Dir Waves Ship Positions

Dolenn

Last reported at 2017-Sep-04 14:40 UTC. Time now 2017-Sep-23 00:16 UTC.
Position N 48°24' W 004°26'.
Warning: this ship's position is 18 days out of date.

Length 11 m.

Type: Sailing vessel. MMSI: 227167050.

Date/timePositionNaut miles runAvg speedWind from/ knotsBaromVisibWave heightAir tempDewpointWater temp
2017-Sep-04 14:40N 48°24' W 004°26'0 0.2
2017-Sep-04 14:28N 48°24' W 004°26'0 0.5
2017-Sep-04 14:00N 48°23' W 004°26'2 3.7
2017-Sep-04 13:30N 48°22' W 004°28'2 4.0
2017-Sep-04 13:00N 48°20' W 004°28'2 3.5
2017-Sep-04 12:30N 48°19' W 004°27'1 2.6
2017-Sep-04 12:01N 48°19' W 004°25'1 2.6
2017-Sep-04 11:31N 48°18' W 004°23'0 0.9
2017-Sep-04 11:00N 48°19' W 004°24'2 3.5
2017-Sep-04 10:30N 48°19' W 004°26'2 3.1
2017-Sep-04 10:00N 48°19' W 004°28'2 3.3
2017-Sep-04 09:30N 48°20' W 004°30'2 4.4
2017-Sep-04 09:01N 48°20' W 004°34'2 4.8
2017-Sep-04 08:31N 48°18' W 004°35'1 0.1
2017-Sep-03 16:57N 48°17' W 004°35'0 0.7
2017-Sep-03 16:30N 48°17' W 004°35'2 4.6
2017-Sep-03 16:00N 48°17' W 004°38'3 5.0
2017-Sep-03 15:30N 48°17' W 004°42'3 5.2
2017-Sep-03 15:00N 48°14' W 004°41'6 6.0
2017-Sep-03 14:00N 48°10' W 004°36'3 6.6
2017-Sep-03 13:30N 48°08' W 004°31'3 6.6
2017-Sep-03 13:00N 48°08' W 004°26'3 6.5
2017-Sep-03 12:30N 48°07' W 004°22'1 0.1
2017-Sep-02 21:40N 48°06' W 004°20'0 0.0
2017-Sep-02 21:28N 48°06' W 004°20'0 0.0
2017-Sep-02 20:58N 48°06' W 004°20'0 0.0
2017-Sep-02 20:28N 48°06' W 004°20'0 0.0
2017-Sep-02 19:58N 48°06' W 004°20'0 0.0
2017-Sep-02 19:28N 48°06' W 004°20'0 0.0
2017-Sep-02 18:58N 48°06' W 004°20'0 0.0
2017-Sep-02 18:28N 48°06' W 004°20'0 0.0
2017-Sep-02 17:58N 48°06' W 004°20'0 0.0
2017-Sep-02 17:28N 48°06' W 004°20'0 0.0
2017-Sep-02 16:29N 48°06' W 004°20'0 1.0
2017-Sep-02 16:00N 48°06' W 004°21'2 4.7
2017-Sep-02 15:30N 48°08' W 004°23'3 6.4
2017-Sep-02 15:00N 48°11' W 004°25'2 4.2
2017-Sep-02 14:30N 48°12' W 004°28'1 2.5
2017-Sep-02 14:00N 48°12' W 004°30'2 4.1
2017-Sep-02 13:30N 48°10' W 004°32'2 3.4
2017-Sep-02 13:00N 48°09' W 004°34'1 2.7
2017-Sep-02 12:30N 48°10' W 004°35'1 2.9
2017-Sep-02 12:00N 48°12' W 004°36'1 2.7
2017-Sep-02 11:30N 48°13' W 004°37'2 3.2
2017-Sep-02 11:00N 48°14' W 004°38'2 4.2
2017-Sep-02 10:30N 48°16' W 004°38'3 5.4
2017-Sep-02 10:00N 48°19' W 004°36'3 5.3
2017-Sep-02 09:30N 48°21' W 004°33'3 5.7
2017-Sep-02 09:00N 48°22' W 004°29'3 5.1
2017-Sep-02 08:30N 48°23' W 004°26'1 1.3
2017-Sep-02 07:58N 48°24' W 004°26'0 0.0
2017-Sep-02 07:28N 48°24' W 004°26'0 0.0
2017-Sep-01 17:37N 48°24' W 004°26'0 0.0
2017-Sep-01 17:28N 48°24' W 004°26'  
2017-Aug-25 14:58N 48°24' W 004°26'  
Track history (hours):
 
Tides and Currents Weather Stations Pressure Air Temp Water Temp Dewpoint Dewpoint Depression Visibility Wind Speed Wind Dir Waves Ship Positions

Dolenn

Last reported at 2017-Sep-04 14:40 UTC. Time now 2017-Sep-23 00:16 UTC.
Position N 48°24' W 004°26'.
Warning: this ship's position is 18 days out of date.

Length 11 m.

Type: Sailing vessel. MMSI: 227167050.

Date/timePositionNaut miles runAvg speedWind from/ knotsBaromVisibWave heightAir tempDewpointWater temp
2017-Sep-04 14:40N 48°24' W 004°26'0 0.2
2017-Sep-04 14:28N 48°24' W 004°26'0 0.5
2017-Sep-04 14:00N 48°23' W 004°26'2 3.7
2017-Sep-04 13:30N 48°22' W 004°28'2 4.0
2017-Sep-04 13:00N 48°20' W 004°28'2 3.5
2017-Sep-04 12:30N 48°19' W 004°27'1 2.6
2017-Sep-04 12:01N 48°19' W 004°25'1 2.6
2017-Sep-04 11:31N 48°18' W 004°23'0 0.9
2017-Sep-04 11:00N 48°19' W 004°24'2 3.5
2017-Sep-04 10:30N 48°19' W 004°26'2 3.1
2017-Sep-04 10:00N 48°19' W 004°28'2 3.3
2017-Sep-04 09:30N 48°20' W 004°30'2 4.4
2017-Sep-04 09:01N 48°20' W 004°34'2 4.8
2017-Sep-04 08:31N 48°18' W 004°35'1 0.1
2017-Sep-03 16:57N 48°17' W 004°35'0 0.7
2017-Sep-03 16:30N 48°17' W 004°35'2 4.6
2017-Sep-03 16:00N 48°17' W 004°38'3 5.0
2017-Sep-03 15:30N 48°17' W 004°42'3 5.2
2017-Sep-03 15:00N 48°14' W 004°41'6 6.0
2017-Sep-03 14:00N 48°10' W 004°36'3 6.6
2017-Sep-03 13:30N 48°08' W 004°31'3 6.6
2017-Sep-03 13:00N 48°08' W 004°26'3 6.5
2017-Sep-03 12:30N 48°07' W 004°22'1 0.1
2017-Sep-02 21:40N 48°06' W 004°20'0 0.0
2017-Sep-02 21:28N 48°06' W 004°20'0 0.0
2017-Sep-02 20:58N 48°06' W 004°20'0 0.0
2017-Sep-02 20:28N 48°06' W 004°20'0 0.0
2017-Sep-02 19:58N 48°06' W 004°20'0 0.0
2017-Sep-02 19:28N 48°06' W 004°20'0 0.0
2017-Sep-02 18:58N 48°06' W 004°20'0 0.0
2017-Sep-02 18:28N 48°06' W 004°20'0 0.0
2017-Sep-02 17:58N 48°06' W 004°20'0 0.0
2017-Sep-02 17:28N 48°06' W 004°20'0 0.0
2017-Sep-02 16:29N 48°06' W 004°20'0 1.0
2017-Sep-02 16:00N 48°06' W 004°21'2 4.7
2017-Sep-02 15:30N 48°08' W 004°23'3 6.4
2017-Sep-02 15:00N 48°11' W 004°25'2 4.2
2017-Sep-02 14:30N 48°12' W 004°28'1 2.5
2017-Sep-02 14:00N 48°12' W 004°30'2 4.1
2017-Sep-02 13:30N 48°10' W 004°32'2 3.4
2017-Sep-02 13:00N 48°09' W 004°34'1 2.7
2017-Sep-02 12:30N 48°10' W 004°35'1 2.9
2017-Sep-02 12:00N 48°12' W 004°36'1 2.7
2017-Sep-02 11:30N 48°13' W 004°37'2 3.2
2017-Sep-02 11:00N 48°14' W 004°38'2 4.2
2017-Sep-02 10:30N 48°16' W 004°38'3 5.4
2017-Sep-02 10:00N 48°19' W 004°36'3 5.3
2017-Sep-02 09:30N 48°21' W 004°33'3 5.7
2017-Sep-02 09:00N 48°22' W 004°29'3 5.1
2017-Sep-02 08:30N 48°23' W 004°26'1 1.3
2017-Sep-02 07:58N 48°24' W 004°26'0 0.0
2017-Sep-02 07:28N 48°24' W 004°26'0 0.0
2017-Sep-01 17:37N 48°24' W 004°26'0 0.0
2017-Sep-01 17:28N 48°24' W 004°26'  
2017-Aug-25 14:58N 48°24' W 004°26'  

Dump ship's entire track history